createdAt,value
2022-10-24T00:00:15.424Z,100202.76
2022-10-24T00:02:44.520Z,100203.66
2022-10-24T00:05:14.610Z,100205.82
2022-10-24T00:07:43.683Z,100211.27
2022-10-24T00:10:14.687Z,100215.70
2022-10-24T00:12:43.692Z,100215.55
2022-10-24T00:15:13.440Z,100216.07
2022-10-24T00:17:42.416Z,100219.97
2022-10-24T00:20:13.122Z,100222.14
2022-10-24T00:22:41.960Z,100220.04
2022-10-24T00:25:11.459Z,100222.02
2022-10-24T00:27:40.279Z,100220.15
2022-10-24T00:30:11.027Z,100215.58
2022-10-24T00:32:39.967Z,100209.70
2022-10-24T00:35:10.351Z,100199.85
2022-10-24T00:37:39.337Z,100200.77
2022-10-24T00:40:14.463Z,100199.83
2022-10-24T00:42:43.235Z,100206.65
2022-10-24T00:45:45.814Z,100202.94
2022-10-24T00:48:22.202Z,100201.48
2022-10-24T00:50:53.434Z,100200.81
2022-10-24T00:53:24.103Z,100207.55
2022-10-24T00:55:56.927Z,100210.77
2022-10-24T00:58:29.282Z,100205.29
2022-10-24T01:00:58.619Z,100193.98
2022-10-24T01:03:27.657Z,100190.90
2022-10-24T01:06:14.910Z,100194.05
2022-10-24T01:08:49.896Z,100191.44
2022-10-24T01:11:33.899Z,100191.02
2022-10-24T01:14:13.967Z,100191.54
2022-10-24T01:16:49.422Z,100181.84
2022-10-24T01:19:36.887Z,100174.33
2022-10-24T01:22:11.376Z,100172.44
2022-10-24T01:24:58.137Z,100175.54
2022-10-24T01:27:40.490Z,100172.77
2022-10-24T01:30:11.163Z,100163.24
2022-10-24T01:32:49.903Z,100158.59
2022-10-24T01:35:35.695Z,100152.63
2022-10-24T01:38:13.575Z,100147.06
2022-10-24T01:40:51.514Z,100142.23
2022-10-24T01:43:25.142Z,100138.54
2022-10-24T01:45:58.932Z,100131.34
2022-10-24T01:48:31.903Z,100129.13
2022-10-24T01:51:03.415Z,100122.05
2022-10-24T01:53:32.720Z,100115.12
2022-10-24T01:56:02.609Z,100112.95
2022-10-24T01:58:31.375Z,100118.91
2022-10-24T02:01:05.906Z,100116.80
2022-10-24T02:03:37.213Z,100119.61
2022-10-24T02:06:12.082Z,100118.83
2022-10-24T02:08:45.197Z,100120.90
2022-10-24T02:11:14.185Z,100119.31
2022-10-24T02:13:50.728Z,100118.84
2022-10-24T02:16:21.257Z,100117.72
2022-10-24T02:18:53.060Z,100112.70
2022-10-24T02:21:29.952Z,100107.46
2022-10-24T02:24:03.305Z,100106.14
2022-10-24T02:26:35.562Z,100106.14
2022-10-24T02:29:09.401Z,100106.38
2022-10-24T02:31:43.413Z,100109.90
2022-10-24T02:34:13.414Z,100108.09
2022-10-24T02:36:45.184Z,100106.42
2022-10-24T02:39:15.521Z,100099.92
2022-10-24T02:41:45.950Z,100101.95
2022-10-24T02:44:18.324Z,100097.77
2022-10-24T02:46:48.641Z,100090.65
2022-10-24T02:49:17.568Z,100086.85
2022-10-24T02:51:48.178Z,100085.51
2022-10-24T02:54:17.301Z,100082.73
2022-10-24T02:56:51.464Z,100077.95
2022-10-24T02:59:20.318Z,100072.41
2022-10-24T03:01:49.096Z,100067.79
2022-10-24T03:04:18.066Z,100064.13
2022-10-24T03:06:46.692Z,100065.73
2022-10-24T03:09:15.437Z,100063.88
2022-10-24T03:11:44.291Z,100055.71
2022-10-24T03:14:13.125Z,100052.02
2022-10-24T03:16:41.865Z,100049.11
2022-10-24T03:19:10.575Z,100044.96
2022-10-24T03:21:39.747Z,100039.77
2022-10-24T03:24:09.446Z,100033.74
2022-10-24T03:26:38.189Z,100033.33
2022-10-24T03:33:13.279Z,100026.29
2022-10-24T03:35:42.321Z,100030.92
2022-10-24T03:38:11.207Z,100032.09
2022-10-24T03:40:40.118Z,100036.12
2022-10-24T03:43:08.695Z,100039.59
2022-10-24T03:45:37.646Z,100047.38
2022-10-24T03:48:07.160Z,100050.10
2022-10-24T03:50:36.264Z,100047.88
2022-10-24T03:53:05.577Z,100044.16
2022-10-24T03:55:35.170Z,100031.70
2022-10-24T03:58:04.009Z,100020.88
2022-10-24T04:00:38.453Z,100020.02
2022-10-24T04:03:09.346Z,100020.33
2022-10-24T04:08:07.231Z,100004.63
2022-10-24T04:10:36.231Z,99995.84
2022-10-24T04:13:05.217Z,99985.18
2022-10-24T04:15:33.941Z,99979.73
2022-10-24T04:18:02.820Z,99977.15
2022-10-24T04:20:31.702Z,99967.71
2022-10-24T04:23:02.407Z,99958.90
2022-10-24T04:25:33.405Z,99945.27
2022-10-24T04:28:02.461Z,99938.16
2022-10-24T04:30:31.206Z,99936.45
2022-10-24T04:32:59.938Z,99939.29
2022-10-24T04:35:29.052Z,99935.17
2022-10-24T04:37:57.706Z,99931.33
2022-10-24T04:40:26.463Z,99932.48
2022-10-24T04:42:55.141Z,99940.19
2022-10-24T04:45:23.900Z,99945.25
2022-10-24T04:47:52.500Z,99946.52
2022-10-24T04:50:21.088Z,99942.85
2022-10-24T04:52:49.696Z,99947.20
2022-10-24T04:55:19.107Z,99943.17
2022-10-24T04:57:48.293Z,99941.70
2022-10-24T05:00:18.303Z,99940.56
2022-10-24T05:02:46.948Z,99947.08
2022-10-24T05:05:16.681Z,99946.89
2022-10-24T05:07:46.238Z,99943.42
2022-10-24T05:10:16.355Z,99944.36
2022-10-24T05:12:45.897Z,99952.12
2022-10-24T05:15:14.943Z,99966.00
2022-10-24T05:17:43.578Z,99975.98
2022-10-24T05:20:12.855Z,99974.86
2022-10-24T05:22:41.906Z,99967.23
2022-10-24T05:25:11.139Z,99964.61
2022-10-24T05:27:39.830Z,99969.44
2022-10-24T05:30:10.785Z,99972.73
2022-10-24T05:32:39.893Z,99967.41
2022-10-24T05:35:10.803Z,99969.60
2022-10-24T05:37:39.562Z,99968.14
2022-10-24T05:40:11.082Z,99967.73
2022-10-24T05:42:40.125Z,99957.96
2022-10-24T05:45:11.346Z,99950.11
2022-10-24T05:47:40.046Z,99952.34
2022-10-24T05:50:10.780Z,99955.61
2022-10-24T05:52:46.144Z,99964.21
2022-10-24T05:55:18.096Z,99959.86
2022-10-24T05:57:47.736Z,99953.48
2022-10-24T06:00:17.847Z,99946.23
2022-10-24T06:05:15.951Z,99932.68
2022-10-24T06:07:44.853Z,99931.93
2022-10-24T06:10:14.935Z,99939.97
2022-10-24T06:12:43.719Z,99959.01
2022-10-24T06:15:14.378Z,99956.54
2022-10-24T06:17:43.084Z,99949.95
2022-10-24T06:20:12.240Z,99960.23
2022-10-24T06:22:41.698Z,99964.23
2022-10-24T06:25:11.098Z,99972.98
2022-10-24T06:27:40.159Z,99972.23
2022-10-24T06:30:11.468Z,99982.00
2022-10-24T06:32:43.611Z,99989.75
2022-10-24T06:35:15.379Z,99991.85
2022-10-24T06:37:47.185Z,99984.84
2022-10-24T06:40:17.890Z,99982.99
2022-10-24T06:42:47.023Z,99986.02
2022-10-24T06:45:16.073Z,99984.98
2022-10-24T06:47:44.854Z,99980.61
2022-10-24T06:50:13.837Z,99988.42
2022-10-24T06:52:42.541Z,99990.91
2022-10-24T06:55:11.773Z,99987.61
2022-10-24T06:57:40.450Z,99982.52
2022-10-24T07:00:13.848Z,99989.84
2022-10-24T07:02:42.539Z,99993.06
2022-10-24T07:05:13.654Z,99994.00
2022-10-24T07:07:43.771Z,99996.70
2022-10-24T07:10:14.338Z,99996.88
2022-10-24T07:12:43.586Z,99996.09
2022-10-24T07:15:13.104Z,99994.29
2022-10-24T07:17:43.151Z,99998.09
2022-10-24T07:20:14.068Z,99998.25
2022-10-24T07:22:45.090Z,99997.79
2022-10-24T07:25:13.976Z,100005.37
2022-10-24T07:27:42.844Z,100001.11
2022-10-24T07:30:17.832Z,99994.92
2022-10-24T07:32:46.977Z,99997.36
2022-10-24T07:35:16.076Z,99994.73
2022-10-24T07:37:45.011Z,99992.94
2022-10-24T07:40:14.591Z,99991.67
2022-10-24T07:42:44.205Z,99987.95
2022-10-24T07:45:13.617Z,99988.75
2022-10-24T07:47:42.679Z,99996.39
2022-10-24T07:50:11.520Z,99997.05
2022-10-24T07:52:40.476Z,99997.17
2022-10-24T07:55:11.719Z,99998.05
2022-10-24T07:57:40.427Z,99992.86
2022-10-24T08:00:12.242Z,99993.83
2022-10-24T08:02:41.332Z,99997.13
2022-10-24T08:05:11.899Z,99997.19
2022-10-24T08:07:40.822Z,99994.48
2022-10-24T08:10:12.715Z,99996.95
2022-10-24T08:12:41.781Z,100002.32
2022-10-24T08:15:11.913Z,99997.80
2022-10-24T08:17:41.563Z,99995.59
2022-10-24T08:20:12.376Z,99995.93
2022-10-24T08:22:41.257Z,99997.25
2022-10-24T08:25:11.451Z,99997.13
2022-10-24T08:27:40.241Z,99988.55
2022-10-24T08:30:11.238Z,99988.96
2022-10-24T08:32:42.645Z,99978.33
2022-10-24T08:35:15.683Z,99968.05
2022-10-24T08:37:44.826Z,99973.14
2022-10-24T08:40:18.724Z,99974.45
2022-10-24T08:42:48.882Z,99973.44
2022-10-24T08:45:23.341Z,99969.16
2022-10-24T08:48:01.245Z,99968.00
2022-10-24T08:50:33.222Z,99970.48
2022-10-24T08:53:06.539Z,99971.29
2022-10-24T08:55:50.255Z,99967.86
2022-10-24T08:58:23.828Z,99971.55
2022-10-24T09:00:55.490Z,99971.72
2022-10-24T09:03:43.856Z,99971.04
2022-10-24T09:06:21.221Z,99972.95
2022-10-24T09:08:55.566Z,99974.80
2022-10-24T09:11:30.759Z,99967.58
2022-10-24T09:14:04.302Z,99963.59
2022-10-24T09:16:33.464Z,99961.21
2022-10-24T09:19:02.266Z,99959.61
2022-10-24T09:21:31.296Z,99966.70
2022-10-24T09:24:01.060Z,99970.11
2022-10-24T09:26:33.200Z,99967.89
2022-10-24T09:29:01.910Z,99970.20
2022-10-24T09:31:31.033Z,99970.75
2022-10-24T09:34:03.678Z,99973.95
2022-10-24T09:36:32.594Z,99980.80
2022-10-24T09:39:24.614Z,99982.21
2022-10-24T09:41:54.528Z,99991.08
2022-10-24T09:44:41.083Z,99990.77
2022-10-24T09:47:25.233Z,99991.64
2022-10-24T09:49:54.868Z,99987.98
2022-10-24T09:52:26.928Z,99990.07
2022-10-24T09:55:16.223Z,99986.36
2022-10-24T09:57:45.485Z,99980.80
2022-10-24T10:00:24.887Z,99981.80
2022-10-24T10:03:02.870Z,99986.18
2022-10-24T10:05:43.960Z,99986.65
2022-10-24T10:08:18.190Z,99981.25
2022-10-24T10:11:06.900Z,99974.21
2022-10-24T10:13:49.846Z,99973.17
2022-10-24T10:16:28.521Z,99971.87
2022-10-24T10:19:04.269Z,99972.71
2022-10-24T10:21:55.229Z,99975.75
2022-10-24T10:24:36.863Z,99973.69
2022-10-24T10:27:29.910Z,99970.86
2022-10-24T10:30:18.973Z,99968.79
2022-10-24T10:33:00.969Z,99977.19
2022-10-24T10:35:37.725Z,99979.55
2022-10-24T10:38:20.121Z,99986.47
2022-10-24T10:40:57.947Z,99990.35
2022-10-24T10:43:40.925Z,99990.89
2022-10-24T10:46:19.539Z,99986.48
2022-10-24T10:49:03.095Z,99982.15
2022-10-24T10:51:42.821Z,99977.89
2022-10-24T10:54:30.386Z,99981.30
2022-10-24T10:57:05.511Z,99986.04
2022-10-24T10:59:49.393Z,99991.20
2022-10-24T11:02:53.179Z,99993.00
2022-10-24T11:05:33.731Z,99989.91
2022-10-24T11:08:14.833Z,99989.58
2022-10-24T11:10:51.672Z,99992.02
2022-10-24T11:13:23.974Z,99986.20
2022-10-24T11:15:58.829Z,99984.38
2022-10-24T11:18:35.432Z,99979.75
2022-10-24T11:21:08.688Z,99972.55
2022-10-24T11:23:52.377Z,99973.14
2022-10-24T11:26:28.564Z,99971.33
2022-10-24T11:29:04.265Z,99964.48
2022-10-24T11:31:37.565Z,99958.33
2022-10-24T11:34:13.416Z,99955.52
2022-10-24T11:36:46.894Z,99954.20
2022-10-24T11:39:23.147Z,99958.65
2022-10-24T11:41:58.636Z,99958.50
2022-10-24T11:44:45.833Z,99955.33
2022-10-24T11:47:36.552Z,99948.60
2022-10-24T11:50:13.337Z,99943.11
2022-10-24T11:52:46.850Z,99943.96
2022-10-24T11:55:20.942Z,99940.23
2022-10-24T11:57:54.415Z,99945.52
2022-10-24T12:00:28.865Z,99947.08
2022-10-24T12:03:43.511Z,99944.02
2022-10-24T12:06:30.927Z,99933.67
2022-10-24T12:09:30.672Z,99929.91
2022-10-24T12:12:19.663Z,99922.27
2022-10-24T12:14:58.950Z,99924.91
2022-10-24T12:17:47.950Z,99918.92
2022-10-24T12:20:21.343Z,99924.74
2022-10-24T12:22:50.687Z,99919.88
2022-10-24T12:25:32.808Z,99916.27
2022-10-24T12:28:04.833Z,99902.33
2022-10-24T12:30:35.729Z,99892.49
2022-10-24T12:33:22.577Z,99892.00
2022-10-24T12:35:56.166Z,99897.09
2022-10-24T12:39:05.748Z,99886.35
2022-10-24T12:41:42.493Z,99886.17
2022-10-24T12:44:44.640Z,99882.11
2022-10-24T12:47:44.813Z,99880.06
2022-10-24T12:50:49.049Z,99883.74
2022-10-24T12:53:35.654Z,99882.76
2022-10-24T12:56:16.857Z,99879.80
2022-10-24T12:59:03.845Z,99881.66
2022-10-24T13:01:36.205Z,99874.98
2022-10-24T13:04:39.769Z,99872.10
2022-10-24T13:07:35.523Z,99871.84
2022-10-24T13:10:20.958Z,99879.13
2022-10-24T13:15:46.368Z,99875.08
2022-10-24T13:18:27.508Z,99872.38
2022-10-24T13:21:15.559Z,99875.84
2022-10-24T13:23:46.697Z,99874.73
2022-10-24T13:26:41.233Z,99879.56
2022-10-24T13:29:16.422Z,99881.89
2022-10-24T13:31:50.575Z,99887.23
2022-10-24T13:34:36.701Z,99884.77
2022-10-24T13:37:14.482Z,99882.83
2022-10-24T13:39:49.417Z,99884.16
2022-10-24T13:42:34.949Z,99885.30
2022-10-24T13:45:16.932Z,99883.59
2022-10-24T13:47:49.636Z,99882.17
2022-10-24T13:50:23.703Z,99877.65
2022-10-24T13:52:57.396Z,99878.07
2022-10-24T13:55:30.515Z,99873.40
2022-10-24T13:58:08.830Z,99876.77
2022-10-24T14:00:40.188Z,99875.88
2022-10-24T14:03:16.432Z,99875.27
2022-10-24T14:05:50.086Z,99877.96
2022-10-24T14:08:24.902Z,99877.85
2022-10-24T14:10:55.582Z,99883.58
2022-10-24T14:13:26.034Z,99886.25
2022-10-24T14:15:58.470Z,99886.00
2022-10-24T14:18:27.389Z,99891.35
2022-10-24T14:20:57.471Z,99891.35
2022-10-24T14:23:29.040Z,99892.42
2022-10-24T14:26:01.349Z,99899.50
2022-10-24T14:28:33.110Z,99899.83
2022-10-24T14:31:05.559Z,99900.31
2022-10-24T14:33:44.033Z,99894.90
2022-10-24T14:36:13.982Z,99899.48
2022-10-24T14:38:43.890Z,99899.73
2022-10-24T14:41:13.804Z,99897.72
2022-10-24T14:43:45.143Z,99894.10
2022-10-24T14:46:35.776Z,99895.84
2022-10-24T14:49:22.032Z,99893.01
2022-10-24T14:54:31.270Z,99894.09
2022-10-24T14:57:00.611Z,99898.00
2022-10-24T14:59:34.648Z,99895.11
2022-10-24T15:02:11.394Z,99893.80
2022-10-24T15:04:43.888Z,99895.09
2022-10-24T15:07:28.053Z,99904.82
2022-10-24T15:09:58.771Z,99905.13
2022-10-24T15:12:39.415Z,99904.40
2022-10-24T15:15:27.705Z,99903.05
2022-10-24T15:18:07.823Z,99905.58
2022-10-24T15:20:39.371Z,99908.15
2022-10-24T15:23:20.330Z,99911.74
2022-10-24T15:26:00.584Z,99911.46
2022-10-24T15:28:47.811Z,99911.36
2022-10-24T15:31:19.635Z,99913.01
2022-10-24T15:33:49.319Z,99909.00
2022-10-24T15:36:22.585Z,99906.60
2022-10-24T15:38:55.514Z,99903.73
2022-10-24T15:41:24.678Z,99903.73
2022-10-24T15:43:54.544Z,99908.30
2022-10-24T15:46:24.379Z,99910.70
2022-10-24T15:48:53.288Z,99904.37
2022-10-24T15:51:24.805Z,99904.77
2022-10-24T15:53:54.127Z,99911.31
2022-10-24T15:56:23.980Z,99913.83
2022-10-24T15:58:54.516Z,99913.58
2022-10-24T16:01:27.798Z,99919.34
2022-10-24T16:03:57.544Z,99918.98
2022-10-24T16:06:27.969Z,99920.34
2022-10-24T16:08:57.133Z,99921.45
2022-10-24T16:11:26.038Z,99919.41
2022-10-24T16:13:55.659Z,99911.80
2022-10-24T16:16:25.321Z,99911.71
2022-10-24T16:18:54.515Z,99912.13
2022-10-24T16:21:23.785Z,99915.27
2022-10-24T16:23:54.504Z,99914.95
2022-10-24T16:26:23.377Z,99911.08
2022-10-24T16:28:52.196Z,99918.04
2022-10-24T16:31:23.130Z,99924.05
2022-10-24T16:33:52.708Z,99921.73
2022-10-24T16:36:24.588Z,99923.86
2022-10-24T16:38:54.446Z,99926.54
2022-10-24T16:41:25.003Z,99926.63
2022-10-24T16:43:57.212Z,99925.55
2022-10-24T16:46:28.027Z,99923.25
2022-10-24T16:48:57.134Z,99926.30
2022-10-24T16:51:31.587Z,99923.10
2022-10-24T16:54:02.988Z,99925.34
2022-10-24T16:56:32.663Z,99929.16
2022-10-24T16:59:02.176Z,99925.70
2022-10-24T17:01:31.852Z,99926.74
2022-10-24T17:04:01.229Z,99924.07
2022-10-24T17:06:30.616Z,99926.91
2022-10-24T17:09:00.024Z,99926.21
2022-10-24T17:11:44.857Z,99925.91
2022-10-24T17:14:16.139Z,99928.26
2022-10-24T17:16:45.766Z,99929.83
2022-10-24T17:19:16.894Z,99929.59
2022-10-24T17:21:55.697Z,99930.42
2022-10-24T17:24:30.433Z,99927.59
2022-10-24T17:27:07.734Z,99929.24
2022-10-24T17:29:37.568Z,99930.93
2022-10-24T17:32:08.426Z,99932.86
2022-10-24T17:34:38.721Z,99929.56
2022-10-24T17:37:15.442Z,99925.28
2022-10-24T17:39:50.853Z,99924.48
2022-10-24T17:42:21.804Z,99921.51
2022-10-24T17:44:52.513Z,99924.00
2022-10-24T17:47:22.443Z,99923.21
2022-10-24T17:49:51.884Z,99918.04
2022-10-24T17:52:25.189Z,99919.36
2022-10-24T17:54:54.214Z,99918.65
2022-10-24T17:57:23.821Z,99923.41
2022-10-24T17:59:54.194Z,99928.38
2022-10-24T18:02:23.718Z,99928.52
2022-10-24T18:04:58.362Z,99930.91
2022-10-24T18:07:27.372Z,99926.14
2022-10-24T18:10:00.497Z,99929.38
2022-10-24T18:12:30.036Z,99928.02
2022-10-24T18:14:59.307Z,99922.62
2022-10-24T18:17:29.576Z,99920.02
2022-10-24T18:19:58.785Z,99918.23
2022-10-24T18:22:29.620Z,99914.14
2022-10-24T18:24:59.469Z,99916.77
2022-10-24T18:27:28.802Z,99912.95
2022-10-24T18:29:59.583Z,99907.86
2022-10-24T18:32:28.508Z,99903.65
2022-10-24T18:34:58.388Z,99901.86
2022-10-24T18:37:30.217Z,99904.81
2022-10-24T18:40:00.533Z,99907.73
2022-10-24T18:42:37.526Z,99909.14
2022-10-24T18:45:11.779Z,99909.13
2022-10-24T18:47:47.179Z,99911.48
2022-10-24T18:50:20.894Z,99911.59
2022-10-24T18:52:56.318Z,99910.06
2022-10-24T18:55:29.927Z,99911.39
2022-10-24T18:58:01.120Z,99915.14
2022-10-24T19:00:36.627Z,99917.66
2022-10-24T19:03:17.992Z,99916.95
2022-10-24T19:05:53.794Z,99909.77
2022-10-24T19:08:26.019Z,99908.34
2022-10-24T19:10:56.531Z,99905.94
2022-10-24T19:13:28.152Z,99904.55
2022-10-24T19:16:00.668Z,99898.67
2022-10-24T19:18:32.551Z,99898.36
2022-10-24T19:21:04.384Z,99898.46
2022-10-24T19:23:34.278Z,99896.00
2022-10-24T19:26:03.567Z,99893.77
2022-10-24T19:28:43.011Z,99891.67
2022-10-24T19:31:14.664Z,99896.49
2022-10-24T19:33:45.745Z,99895.86
2022-10-24T19:36:19.006Z,99895.25
2022-10-24T19:38:48.950Z,99897.55
2022-10-24T19:41:18.278Z,99898.61
2022-10-24T19:43:47.952Z,99897.86
2022-10-24T19:46:20.691Z,99901.10
2022-10-24T19:48:53.034Z,99898.99
2022-10-24T19:51:24.693Z,99895.77
2022-10-24T19:53:55.146Z,99898.66
2022-10-24T19:56:29.222Z,99899.96
2022-10-24T19:58:59.610Z,99893.73
2022-10-24T20:01:30.811Z,99897.44
2022-10-24T20:04:03.248Z,99895.19
2022-10-24T20:06:32.917Z,99894.44
2022-10-24T20:09:02.438Z,99890.10
2022-10-24T20:11:31.693Z,99897.93
2022-10-24T20:14:01.067Z,99897.51
2022-10-24T20:16:30.268Z,99895.45
2022-10-24T20:18:59.865Z,99893.33
2022-10-24T20:21:31.201Z,99897.66
2022-10-24T20:24:03.737Z,99900.03
2022-10-24T20:26:32.766Z,99901.80
2022-10-24T20:29:01.781Z,99900.69
2022-10-24T20:31:32.733Z,99901.59
2022-10-24T20:34:09.117Z,99896.90
2022-10-24T20:36:39.120Z,99904.48
2022-10-24T20:39:09.045Z,99904.67
2022-10-24T20:41:38.662Z,99909.69
2022-10-24T20:44:07.973Z,99909.61
2022-10-24T20:46:38.126Z,99907.40
2022-10-24T20:49:06.938Z,99911.23
2022-10-24T20:51:36.020Z,99917.70
2022-10-24T20:54:09.180Z,99916.55
2022-10-24T20:56:42.361Z,99916.98
2022-10-24T20:59:13.499Z,99916.10
2022-10-24T21:01:43.736Z,99919.02
2022-10-24T21:04:14.669Z,99917.92
2022-10-24T21:06:46.732Z,99916.44
2022-10-24T21:09:15.734Z,99912.25
2022-10-24T21:11:44.964Z,99913.35
2022-10-24T21:14:15.111Z,99916.73
2022-10-24T21:16:44.040Z,99911.33
2022-10-24T21:19:13.090Z,99918.45
2022-10-24T21:21:42.434Z,99924.98
2022-10-24T21:24:17.317Z,99929.60
2022-10-24T21:26:46.161Z,99929.38
2022-10-24T21:29:32.107Z,99934.84
2022-10-24T21:32:01.908Z,99927.81
2022-10-24T21:34:34.183Z,99934.25
2022-10-24T21:37:04.599Z,99939.52
2022-10-24T21:39:33.148Z,99938.70
2022-10-24T21:42:01.761Z,99942.61
2022-10-24T21:44:30.386Z,99940.90
2022-10-24T21:46:59.040Z,99941.85
2022-10-24T21:49:27.920Z,99945.59
2022-10-24T21:51:56.971Z,99949.34
2022-10-24T21:54:26.598Z,99949.77
2022-10-24T21:56:56.589Z,99948.36
2022-10-24T21:59:25.689Z,99950.94
2022-10-24T22:01:54.678Z,99945.95
2022-10-24T22:04:23.397Z,99948.77
2022-10-24T22:06:52.882Z,99950.63
2022-10-24T22:09:23.870Z,99946.02
2022-10-24T22:11:54.249Z,99948.71
2022-10-24T22:14:22.928Z,99953.13
2022-10-24T22:16:51.810Z,99954.98
2022-10-24T22:19:20.430Z,99959.96
2022-10-24T22:21:50.916Z,99960.66
2022-10-24T22:24:22.770Z,99962.46
2022-10-24T22:26:52.401Z,99962.16
2022-10-24T22:29:24.069Z,99960.73
2022-10-24T22:31:54.370Z,99961.97
2022-10-24T22:34:25.472Z,99962.71
2022-10-24T22:37:12.058Z,99969.15
2022-10-24T22:39:42.239Z,99964.39
2022-10-24T22:42:14.754Z,99970.59
2022-10-24T22:44:47.521Z,99973.06
2022-10-24T22:47:45.056Z,99969.11
2022-10-24T22:50:27.981Z,99964.27
2022-10-24T22:52:58.471Z,99968.02
2022-10-24T22:55:32.869Z,99959.79
2022-10-24T22:58:02.784Z,99963.33
2022-10-24T23:00:32.698Z,99963.88
2022-10-24T23:03:12.594Z,99964.59
2022-10-24T23:05:49.986Z,99962.81
2022-10-24T23:08:29.175Z,99959.66
2022-10-24T23:10:58.811Z,99958.88
2022-10-24T23:13:29.909Z,99949.13
2022-10-24T23:16:05.178Z,99943.19
2022-10-24T23:18:34.993Z,99939.34
2022-10-24T23:21:11.662Z,99939.06
2022-10-24T23:23:42.939Z,99944.35
2022-10-24T23:26:23.998Z,99953.02
2022-10-24T23:28:59.688Z,99955.21
2022-10-24T23:31:31.877Z,99960.49
2022-10-24T23:34:01.605Z,99961.56
2022-10-24T23:36:31.168Z,99960.15
2022-10-24T23:39:02.316Z,99956.41
2022-10-24T23:41:33.000Z,99958.62
2022-10-24T23:44:02.628Z,99957.09
2022-10-24T23:46:37.653Z,99961.29
2022-10-24T23:49:20.578Z,99958.44
2022-10-24T23:51:59.112Z,99956.80
2022-10-24T23:54:32.684Z,99955.44
2022-10-24T23:57:12.139Z,99954.95
2022-10-24T23:59:41.232Z,99958.95
